sensor_id;sensor_type;location;lat;lon;timestamp;temperature;humidity
10472;DHT22;5283;48.876;8.962;2022-09-27T00:02:16;10.20;99.90
10472;DHT22;5283;48.876;8.962;2022-09-27T00:04:43;10.10;99.90
10472;DHT22;5283;48.876;8.962;2022-09-27T00:07:09;10.10;99.90
10472;DHT22;5283;48.876;8.962;2022-09-27T00:09:36;10.10;99.90
10472;DHT22;5283;48.876;8.962;2022-09-27T00:12:03;10.10;99.90
10472;DHT22;5283;48.876;8.962;2022-09-27T00:14:30;10.10;99.90
10472;DHT22;5283;48.876;8.962;2022-09-27T00:16:56;10.10;99.90
10472;DHT22;5283;48.876;8.962;2022-09-27T00:19:23;10.00;99.90
10472;DHT22;5283;48.876;8.962;2022-09-27T00:21:51;10.00;99.90
10472;DHT22;5283;48.876;8.962;2022-09-27T00:24:21;9.90;99.90
10472;DHT22;5283;48.876;8.962;2022-09-27T00:26:49;9.90;99.90
10472;DHT22;5283;48.876;8.962;2022-09-27T00:29:17;9.90;99.90
10472;DHT22;5283;48.876;8.962;2022-09-27T00:31:45;9.90;99.90
10472;DHT22;5283;48.876;8.962;2022-09-27T00:34:23;9.80;99.90
10472;DHT22;5283;48.876;8.962;2022-09-27T00:36:50;9.90;99.90
10472;DHT22;5283;48.876;8.962;2022-09-27T00:39:17;9.90;99.90
10472;DHT22;5283;48.876;8.962;2022-09-27T00:41:44;9.90;99.90
10472;DHT22;5283;48.876;8.962;2022-09-27T00:47:24;9.90;99.90
10472;DHT22;5283;48.876;8.962;2022-09-27T00:50:04;9.90;99.90
10472;DHT22;5283;48.876;8.962;2022-09-27T00:55:22;9.90;99.90
10472;DHT22;5283;48.876;8.962;2022-09-27T00:57:50;9.90;99.90
10472;DHT22;5283;48.876;8.962;2022-09-27T01:00:17;9.90;99.90
10472;DHT22;5283;48.876;8.962;2022-09-27T01:02:50;9.90;99.90
10472;DHT22;5283;48.876;8.962;2022-09-27T01:05:20;9.90;99.90
10472;DHT22;5283;48.876;8.962;2022-09-27T01:07:48;9.80;99.90
10472;DHT22;5283;48.876;8.962;2022-09-27T01:10:16;9.90;99.90
10472;DHT22;5283;48.876;8.962;2022-09-27T01:12:55;9.90;99.90
10472;DHT22;5283;48.876;8.962;2022-09-27T01:15:33;9.80;99.90
10472;DHT22;5283;48.876;8.962;2022-09-27T01:21:41;9.90;99.90
10472;DHT22;5283;48.876;8.962;2022-09-27T01:27:14;9.80;99.90
10472;DHT22;5283;48.876;8.962;2022-09-27T01:33:09;9.80;99.90
10472;DHT22;5283;48.876;8.962;2022-09-27T01:41:18;9.70;99.90
10472;DHT22;5283;48.876;8.962;2022-09-27T01:44:03;9.70;99.90
10472;DHT22;5283;48.876;8.962;2022-09-27T01:46:36;9.70;99.90
10472;DHT22;5283;48.876;8.962;2022-09-27T01:49:09;9.70;99.90
10472;DHT22;5283;48.876;8.962;2022-09-27T01:51:41;9.70;99.90
10472;DHT22;5283;48.876;8.962;2022-09-27T01:54:13;9.70;99.90
10472;DHT22;5283;48.876;8.962;2022-09-27T01:56:50;9.70;99.90
10472;DHT22;5283;48.876;8.962;2022-09-27T01:59:21;9.60;99.90
10472;DHT22;5283;48.876;8.962;2022-09-27T02:01:51;9.60;99.90
10472;DHT22;5283;48.876;8.962;2022-09-27T02:04:23;9.60;99.90
10472;DHT22;5283;48.876;8.962;2022-09-27T02:07:01;9.60;99.90
10472;DHT22;5283;48.876;8.962;2022-09-27T02:09:47;9.60;99.90
10472;DHT22;5283;48.876;8.962;2022-09-27T02:12:25;9.60;99.90
10472;DHT22;5283;48.876;8.962;2022-09-27T02:14:57;9.60;99.90
10472;DHT22;5283;48.876;8.962;2022-09-27T02:20:29;9.60;99.90
10472;DHT22;5283;48.876;8.962;2022-09-27T02:23:13;9.50;99.90
10472;DHT22;5283;48.876;8.962;2022-09-27T02:25:49;9.40;99.90
10472;DHT22;5283;48.876;8.962;2022-09-27T02:28:34;9.30;99.90
10472;DHT22;5283;48.876;8.962;2022-09-27T02:31:02;9.30;99.90
10472;DHT22;5283;48.876;8.962;2022-09-27T02:33:40;9.20;99.90
10472;DHT22;5283;48.876;8.962;2022-09-27T02:36:09;9.20;99.90
10472;DHT22;5283;48.876;8.962;2022-09-27T02:38:37;9.10;99.90
10472;DHT22;5283;48.876;8.962;2022-09-27T02:41:10;9.00;99.90
10472;DHT22;5283;48.876;8.962;2022-09-27T02:43:37;9.00;99.90
10472;DHT22;5283;48.876;8.962;2022-09-27T02:48:54;8.90;99.90
10472;DHT22;5283;48.876;8.962;2022-09-27T02:54:54;8.90;99.90
10472;DHT22;5283;48.876;8.962;2022-09-27T02:57:46;8.90;99.90
10472;DHT22;5283;48.876;8.962;2022-09-27T03:00:30;8.90;99.90
10472;DHT22;5283;48.876;8.962;2022-09-27T03:05:36;8.80;99.90
10472;DHT22;5283;48.876;8.962;2022-09-27T03:08:06;8.80;99.90
10472;DHT22;5283;48.876;8.962;2022-09-27T03:10:33;8.90;99.90
10472;DHT22;5283;48.876;8.962;2022-09-27T03:12:59;8.90;99.90
10472;DHT22;5283;48.876;8.962;2022-09-27T03:15:26;9.00;99.90
10472;DHT22;5283;48.876;8.962;2022-09-27T03:17:53;9.00;99.90
10472;DHT22;5283;48.876;8.962;2022-09-27T03:20:19;9.00;99.90
10472;DHT22;5283;48.876;8.962;2022-09-27T03:22:46;8.90;99.90
10472;DHT22;5283;48.876;8.962;2022-09-27T03:25:13;8.90;99.90
10472;DHT22;5283;48.876;8.962;2022-09-27T03:27:39;9.00;99.90
10472;DHT22;5283;48.876;8.962;2022-09-27T03:30:06;9.00;99.90
10472;DHT22;5283;48.876;8.962;2022-09-27T03:32:33;9.10;99.90
10472;DHT22;5283;48.876;8.962;2022-09-27T03:35:00;9.10;99.90
10472;DHT22;5283;48.876;8.962;2022-09-27T03:37:26;9.10;99.90
10472;DHT22;5283;48.876;8.962;2022-09-27T03:39:54;9.10;99.90
10472;DHT22;5283;48.876;8.962;2022-09-27T03:42:21;9.10;99.90
10472;DHT22;5283;48.876;8.962;2022-09-27T03:44:48;9.20;99.90
10472;DHT22;5283;48.876;8.962;2022-09-27T03:47:16;9.20;99.90
10472;DHT22;5283;48.876;8.962;2022-09-27T03:49:43;9.20;99.90
10472;DHT22;5283;48.876;8.962;2022-09-27T03:52:09;9.20;99.90
10472;DHT22;5283;48.876;8.962;2022-09-27T03:54:36;9.20;99.90
10472;DHT22;5283;48.876;8.962;2022-09-27T03:57:03;9.20;99.90
10472;DHT22;5283;48.876;8.962;2022-09-27T03:59:30;9.20;99.90
10472;DHT22;5283;48.876;8.962;2022-09-27T04:01:57;9.20;99.90
10472;DHT22;5283;48.876;8.962;2022-09-27T04:04:24;9.20;99.90
10472;DHT22;5283;48.876;8.962;2022-09-27T04:06:51;9.20;99.90
10472;DHT22;5283;48.876;8.962;2022-09-27T04:09:17;9.20;99.90
10472;DHT22;5283;48.876;8.962;2022-09-27T04:11:48;9.20;99.90
10472;DHT22;5283;48.876;8.962;2022-09-27T04:14:15;9.10;99.90
10472;DHT22;5283;48.876;8.962;2022-09-27T04:16:42;9.00;99.90
10472;DHT22;5283;48.876;8.962;2022-09-27T04:19:09;9.10;99.90
10472;DHT22;5283;48.876;8.962;2022-09-27T04:21:36;9.10;99.90
10472;DHT22;5283;48.876;8.962;2022-09-27T04:24:03;9.10;99.90
10472;DHT22;5283;48.876;8.962;2022-09-27T04:26:30;9.10;99.90
10472;DHT22;5283;48.876;8.962;2022-09-27T04:28:57;9.10;99.90
10472;DHT22;5283;48.876;8.962;2022-09-27T04:31:24;9.10;99.90
10472;DHT22;5283;48.876;8.962;2022-09-27T04:33:51;9.10;99.90
10472;DHT22;5283;48.876;8.962;2022-09-27T04:36:21;9.10;99.90
10472;DHT22;5283;48.876;8.962;2022-09-27T04:38:55;9.10;99.90
10472;DHT22;5283;48.876;8.962;2022-09-27T04:41:23;9.10;99.90
10472;DHT22;5283;48.876;8.962;2022-09-27T04:43:51;9.10;99.90
10472;DHT22;5283;48.876;8.962;2022-09-27T04:46:21;9.10;99.90
10472;DHT22;5283;48.876;8.962;2022-09-27T04:48:47;9.10;99.90
10472;DHT22;5283;48.876;8.962;2022-09-27T04:51:15;9.10;99.90
10472;DHT22;5283;48.876;8.962;2022-09-27T04:53:43;9.10;99.90
10472;DHT22;5283;48.876;8.962;2022-09-27T04:56:10;9.10;99.90
10472;DHT22;5283;48.876;8.962;2022-09-27T04:58:38;9.20;99.90
10472;DHT22;5283;48.876;8.962;2022-09-27T05:01:05;9.10;99.90
10472;DHT22;5283;48.876;8.962;2022-09-27T05:03:32;9.10;99.90
10472;DHT22;5283;48.876;8.962;2022-09-27T05:05:59;9.10;99.90
10472;DHT22;5283;48.876;8.962;2022-09-27T05:08:26;9.10;99.90
10472;DHT22;5283;48.876;8.962;2022-09-27T05:10:53;9.10;99.90
10472;DHT22;5283;48.876;8.962;2022-09-27T05:13:21;9.10;99.90
10472;DHT22;5283;48.876;8.962;2022-09-27T05:15:47;9.00;99.90
10472;DHT22;5283;48.876;8.962;2022-09-27T05:18:14;8.90;99.90
10472;DHT22;5283;48.876;8.962;2022-09-27T05:20:41;8.80;99.90
10472;DHT22;5283;48.876;8.962;2022-09-27T05:23:07;8.80;99.90
10472;DHT22;5283;48.876;8.962;2022-09-27T05:25:34;8.80;99.90
10472;DHT22;5283;48.876;8.962;2022-09-27T05:28:01;8.80;99.90
10472;DHT22;5283;48.876;8.962;2022-09-27T05:30:28;8.80;99.90
10472;DHT22;5283;48.876;8.962;2022-09-27T05:32:54;8.80;99.90
10472;DHT22;5283;48.876;8.962;2022-09-27T05:35:22;8.80;99.90
10472;DHT22;5283;48.876;8.962;2022-09-27T05:37:53;8.80;99.90
10472;DHT22;5283;48.876;8.962;2022-09-27T05:40:20;8.80;99.90
10472;DHT22;5283;48.876;8.962;2022-09-27T05:43:02;8.80;99.90
10472;DHT22;5283;48.876;8.962;2022-09-27T05:45:29;8.80;99.90
10472;DHT22;5283;48.876;8.962;2022-09-27T05:47:56;8.80;99.90
10472;DHT22;5283;48.876;8.962;2022-09-27T05:50:25;8.80;99.90
10472;DHT22;5283;48.876;8.962;2022-09-27T05:52:52;8.80;99.90
10472;DHT22;5283;48.876;8.962;2022-09-27T05:55:19;8.80;99.90
10472;DHT22;5283;48.876;8.962;2022-09-27T05:58:07;8.80;99.90
10472;DHT22;5283;48.876;8.962;2022-09-27T06:00:33;8.80;99.90
10472;DHT22;5283;48.876;8.962;2022-09-27T06:03:02;8.80;99.90
10472;DHT22;5283;48.876;8.962;2022-09-27T06:05:30;8.80;99.90
10472;DHT22;5283;48.876;8.962;2022-09-27T06:08:02;8.80;99.90
10472;DHT22;5283;48.876;8.962;2022-09-27T06:10:30;8.80;99.90
10472;DHT22;5283;48.876;8.962;2022-09-27T06:13:04;8.80;99.90
10472;DHT22;5283;48.876;8.962;2022-09-27T06:15:32;8.80;99.90
10472;DHT22;5283;48.876;8.962;2022-09-27T06:18:05;8.80;99.90
10472;DHT22;5283;48.876;8.962;2022-09-27T06:20:32;8.80;99.90
10472;DHT22;5283;48.876;8.962;2022-09-27T06:25:30;8.90;99.90
10472;DHT22;5283;48.876;8.962;2022-09-27T06:27:56;9.00;99.90
10472;DHT22;5283;48.876;8.962;2022-09-27T06:30:23;9.10;99.90
10472;DHT22;5283;48.876;8.962;2022-09-27T06:32:58;9.10;99.90
10472;DHT22;5283;48.876;8.962;2022-09-27T06:35:27;9.10;99.90
10472;DHT22;5283;48.876;8.962;2022-09-27T06:37:54;9.10;99.90
10472;DHT22;5283;48.876;8.962;2022-09-27T06:40:21;9.00;99.90
10472;DHT22;5283;48.876;8.962;2022-09-27T06:42:48;8.90;99.90
10472;DHT22;5283;48.876;8.962;2022-09-27T06:45:15;8.80;99.90
10472;DHT22;5283;48.876;8.962;2022-09-27T06:47:42;8.70;99.90
10472;DHT22;5283;48.876;8.962;2022-09-27T06:50:08;8.60;99.90
10472;DHT22;5283;48.876;8.962;2022-09-27T06:52:35;8.60;99.90
10472;DHT22;5283;48.876;8.962;2022-09-27T06:55:03;8.50;99.90
10472;DHT22;5283;48.876;8.962;2022-09-27T06:57:30;8.50;99.90
10472;DHT22;5283;48.876;8.962;2022-09-27T07:00:16;8.50;99.90
10472;DHT22;5283;48.876;8.962;2022-09-27T07:02:56;8.60;99.90
10472;DHT22;5283;48.876;8.962;2022-09-27T07:05:27;8.60;99.90
10472;DHT22;5283;48.876;8.962;2022-09-27T07:07:55;8.60;99.90
10472;DHT22;5283;48.876;8.962;2022-09-27T07:10:24;8.60;99.90
10472;DHT22;5283;48.876;8.962;2022-09-27T07:12:52;8.60;99.90
10472;DHT22;5283;48.876;8.962;2022-09-27T07:15:19;8.70;99.90
10472;DHT22;5283;48.876;8.962;2022-09-27T07:17:56;8.70;99.90
10472;DHT22;5283;48.876;8.962;2022-09-27T07:20:26;8.70;99.90
10472;DHT22;5283;48.876;8.962;2022-09-27T07:22:54;8.70;99.90
10472;DHT22;5283;48.876;8.962;2022-09-27T07:25:22;8.80;99.90
10472;DHT22;5283;48.876;8.962;2022-09-27T07:27:49;8.80;99.90
10472;DHT22;5283;48.876;8.962;2022-09-27T07:30:19;8.80;99.90
10472;DHT22;5283;48.876;8.962;2022-09-27T07:32:46;8.80;99.90
10472;DHT22;5283;48.876;8.962;2022-09-27T07:35:13;8.80;99.90
10472;DHT22;5283;48.876;8.962;2022-09-27T07:37:43;8.90;99.90
10472;DHT22;5283;48.876;8.962;2022-09-27T07:40:10;9.00;99.90
10472;DHT22;5283;48.876;8.962;2022-09-27T07:42:37;9.00;99.90
10472;DHT22;5283;48.876;8.962;2022-09-27T07:45:08;9.10;99.90
10472;DHT22;5283;48.876;8.962;2022-09-27T07:47:37;9.30;99.90
10472;DHT22;5283;48.876;8.962;2022-09-27T07:50:05;9.50;99.90
10472;DHT22;5283;48.876;8.962;2022-09-27T07:52:40;9.60;99.90
10472;DHT22;5283;48.876;8.962;2022-09-27T07:55:09;9.70;99.90
10472;DHT22;5283;48.876;8.962;2022-09-27T07:57:37;9.60;99.90
10472;DHT22;5283;48.876;8.962;2022-09-27T08:00:06;9.40;99.90
10472;DHT22;5283;48.876;8.962;2022-09-27T08:02:33;9.40;99.90
10472;DHT22;5283;48.876;8.962;2022-09-27T08:05:00;9.40;99.90
10472;DHT22;5283;48.876;8.962;2022-09-27T08:07:28;9.40;99.90
10472;DHT22;5283;48.876;8.962;2022-09-27T08:09:55;9.50;99.90
10472;DHT22;5283;48.876;8.962;2022-09-27T08:12:22;9.70;99.90
10472;DHT22;5283;48.876;8.962;2022-09-27T08:14:49;10.00;99.90
10472;DHT22;5283;48.876;8.962;2022-09-27T08:17:16;10.00;99.90
10472;DHT22;5283;48.876;8.962;2022-09-27T08:19:43;10.00;99.90
10472;DHT22;5283;48.876;8.962;2022-09-27T08:22:11;10.00;99.90
10472;DHT22;5283;48.876;8.962;2022-09-27T08:24:41;10.20;99.90
10472;DHT22;5283;48.876;8.962;2022-09-27T08:27:08;10.40;99.90
10472;DHT22;5283;48.876;8.962;2022-09-27T08:29:37;10.50;99.90
10472;DHT22;5283;48.876;8.962;2022-09-27T08:32:08;10.50;99.90
10472;DHT22;5283;48.876;8.962;2022-09-27T08:34:34;10.70;99.90
10472;DHT22;5283;48.876;8.962;2022-09-27T08:37:01;10.40;99.90
10472;DHT22;5283;48.876;8.962;2022-09-27T08:39:28;10.10;99.90
10472;DHT22;5283;48.876;8.962;2022-09-27T08:47:17;10.00;99.90
10472;DHT22;5283;48.876;8.962;2022-09-27T08:49:52;10.20;99.90
10472;DHT22;5283;48.876;8.962;2022-09-27T08:52:34;10.10;99.90
10472;DHT22;5283;48.876;8.962;2022-09-27T08:55:05;10.10;99.90
10472;DHT22;5283;48.876;8.962;2022-09-27T08:57:40;10.10;99.90
10472;DHT22;5283;48.876;8.962;2022-09-27T09:00:10;10.20;99.90
10472;DHT22;5283;48.876;8.962;2022-09-27T09:02:37;10.00;99.90
10472;DHT22;5283;48.876;8.962;2022-09-27T09:05:10;10.10;99.90
10472;DHT22;5283;48.876;8.962;2022-09-27T09:10:50;9.90;99.90
10472;DHT22;5283;48.876;8.962;2022-09-27T09:17:19;10.40;99.90
10472;DHT22;5283;48.876;8.962;2022-09-27T09:19:59;10.50;99.90
10472;DHT22;5283;48.876;8.962;2022-09-27T09:25:49;11.10;99.90
10472;DHT22;5283;48.876;8.962;2022-09-27T09:28:33;11.20;99.90
10472;DHT22;5283;48.876;8.962;2022-09-27T09:31:11;11.20;99.90
10472;DHT22;5283;48.876;8.962;2022-09-27T09:33:45;11.50;99.90
10472;DHT22;5283;48.876;8.962;2022-09-27T09:36:36;11.20;99.90
10472;DHT22;5283;48.876;8.962;2022-09-27T09:39:05;11.30;99.90
10472;DHT22;5283;48.876;8.962;2022-09-27T09:41:38;11.30;99.90
10472;DHT22;5283;48.876;8.962;2022-09-27T09:44:17;11.40;99.90
10472;DHT22;5283;48.876;8.962;2022-09-27T09:46:46;11.40;99.90
10472;DHT22;5283;48.876;8.962;2022-09-27T09:49:28;11.60;99.90
10472;DHT22;5283;48.876;8.962;2022-09-27T09:52:00;11.80;99.90
10472;DHT22;5283;48.876;8.962;2022-09-27T09:54:45;12.00;99.90
10472;DHT22;5283;48.876;8.962;2022-09-27T09:57:55;11.90;99.90
10472;DHT22;5283;48.876;8.962;2022-09-27T10:00:15;11.70;99.90
10472;DHT22;5283;48.876;8.962;2022-09-27T10:02:46;12.00;99.90
10472;DHT22;5283;48.876;8.962;2022-09-27T10:05:18;11.90;99.90
10472;DHT22;5283;48.876;8.962;2022-09-27T10:07:47;11.70;99.90
10472;DHT22;5283;48.876;8.962;2022-09-27T10:10:16;11.70;99.90
10472;DHT22;5283;48.876;8.962;2022-09-27T10:12:43;11.80;99.90
10472;DHT22;5283;48.876;8.962;2022-09-27T10:15:23;11.80;99.90
10472;DHT22;5283;48.876;8.962;2022-09-27T10:17:53;11.90;99.90
10472;DHT22;5283;48.876;8.962;2022-09-27T10:20:50;12.10;99.90
10472;DHT22;5283;48.876;8.962;2022-09-27T10:23:21;12.10;99.90
10472;DHT22;5283;48.876;8.962;2022-09-27T10:25:55;11.90;99.90
10472;DHT22;5283;48.876;8.962;2022-09-27T10:30:56;11.70;99.90
10472;DHT22;5283;48.876;8.962;2022-09-27T10:33:24;11.90;99.90
10472;DHT22;5283;48.876;8.962;2022-09-27T10:35:51;12.20;99.90
10472;DHT22;5283;48.876;8.962;2022-09-27T10:38:22;12.30;99.90
10472;DHT22;5283;48.876;8.962;2022-09-27T10:40:54;12.10;99.90
10472;DHT22;5283;48.876;8.962;2022-09-27T10:43:34;12.00;99.90
10472;DHT22;5283;48.876;8.962;2022-09-27T10:46:27;11.80;99.90
10472;DHT22;5283;48.876;8.962;2022-09-27T10:51:44;11.30;99.90
10472;DHT22;5283;48.876;8.962;2022-09-27T10:54:29;11.40;99.90
10472;DHT22;5283;48.876;8.962;2022-09-27T10:57:03;11.50;99.90
10472;DHT22;5283;48.876;8.962;2022-09-27T10:59:34;11.60;99.90
10472;DHT22;5283;48.876;8.962;2022-09-27T11:02:03;11.50;99.90
10472;DHT22;5283;48.876;8.962;2022-09-27T11:04:33;11.10;99.90
10472;DHT22;5283;48.876;8.962;2022-09-27T11:07:16;10.80;99.90
10472;DHT22;5283;48.876;8.962;2022-09-27T11:09:46;10.60;99.90
10472;DHT22;5283;48.876;8.962;2022-09-27T11:12:14;10.50;99.90
10472;DHT22;5283;48.876;8.962;2022-09-27T11:14:52;10.50;99.90
10472;DHT22;5283;48.876;8.962;2022-09-27T11:17:28;10.40;99.90
10472;DHT22;5283;48.876;8.962;2022-09-27T11:20:07;10.40;99.90
10472;DHT22;5283;48.876;8.962;2022-09-27T11:22:58;10.40;99.90
10472;DHT22;5283;48.876;8.962;2022-09-27T11:28:21;10.40;99.90
10472;DHT22;5283;48.876;8.962;2022-09-27T11:33:44;10.00;99.90
10472;DHT22;5283;48.876;8.962;2022-09-27T11:36:22;9.60;99.90
10472;DHT22;5283;48.876;8.962;2022-09-27T11:38:56;8.90;99.90
10472;DHT22;5283;48.876;8.962;2022-09-27T11:44:17;8.20;99.90
10472;DHT22;5283;48.876;8.962;2022-09-27T11:55:37;7.90;99.90
10472;DHT22;5283;48.876;8.962;2022-09-27T11:58:30;8.20;99.90
10472;DHT22;5283;48.876;8.962;2022-09-27T12:09:37;8.90;99.90
10472;DHT22;5283;48.876;8.962;2022-09-27T12:12:12;8.80;99.90
10472;DHT22;5283;48.876;8.962;2022-09-27T12:14:46;8.80;99.90
10472;DHT22;5283;48.876;8.962;2022-09-27T12:17:29;8.70;99.90
10472;DHT22;5283;48.876;8.962;2022-09-27T12:19:59;8.50;99.90
10472;DHT22;5283;48.876;8.962;2022-09-27T12:22:34;8.50;99.90
10472;DHT22;5283;48.876;8.962;2022-09-27T12:25:25;8.40;99.90
10472;DHT22;5283;48.876;8.962;2022-09-27T12:28:11;8.40;99.90
10472;DHT22;5283;48.876;8.962;2022-09-27T12:30:44;8.40;99.90
10472;DHT22;5283;48.876;8.962;2022-09-27T12:36:08;8.30;99.90
10472;DHT22;5283;48.876;8.962;2022-09-27T12:41:42;8.30;99.90
10472;DHT22;5283;48.876;8.962;2022-09-27T12:44:10;8.30;99.90
10472;DHT22;5283;48.876;8.962;2022-09-27T12:49:45;8.30;99.90
10472;DHT22;5283;48.876;8.962;2022-09-27T12:52:20;8.40;99.90
10472;DHT22;5283;48.876;8.962;2022-09-27T12:55:46;8.50;99.90
10472;DHT22;5283;48.876;8.962;2022-09-27T13:00:58;8.40;99.90
10472;DHT22;5283;48.876;8.962;2022-09-27T13:04:07;8.30;99.90
10472;DHT22;5283;48.876;8.962;2022-09-27T13:10:05;8.20;99.90
10472;DHT22;5283;48.876;8.962;2022-09-27T13:12:35;8.20;99.90
10472;DHT22;5283;48.876;8.962;2022-09-27T13:25:53;8.30;99.90
10472;DHT22;5283;48.876;8.962;2022-09-27T13:31:02;8.40;99.90
10472;DHT22;5283;48.876;8.962;2022-09-27T13:33:49;8.40;99.90
10472;DHT22;5283;48.876;8.962;2022-09-27T13:47:02;8.20;99.90
10472;DHT22;5283;48.876;8.962;2022-09-27T13:49:36;8.30;99.90
10472;DHT22;5283;48.876;8.962;2022-09-27T13:52:36;8.30;99.90
10472;DHT22;5283;48.876;8.962;2022-09-27T13:58:16;8.40;99.90
10472;DHT22;5283;48.876;8.962;2022-09-27T14:00:49;8.60;99.90
10472;DHT22;5283;48.876;8.962;2022-09-27T14:03:25;8.80;99.90
10472;DHT22;5283;48.876;8.962;2022-09-27T14:05:59;8.90;99.90
10472;DHT22;5283;48.876;8.962;2022-09-27T14:08:54;8.90;99.90
10472;DHT22;5283;48.876;8.962;2022-09-27T14:11:27;8.80;99.90
10472;DHT22;5283;48.876;8.962;2022-09-27T14:13:55;8.80;99.90
10472;DHT22;5283;48.876;8.962;2022-09-27T14:16:24;8.70;99.90
10472;DHT22;5283;48.876;8.962;2022-09-27T14:18:54;8.90;99.90
10472;DHT22;5283;48.876;8.962;2022-09-27T14:21:41;9.10;99.90
10472;DHT22;5283;48.876;8.962;2022-09-27T14:27:14;9.40;99.90
10472;DHT22;5283;48.876;8.962;2022-09-27T14:29:54;9.30;99.90
10472;DHT22;5283;48.876;8.962;2022-09-27T14:32:31;9.30;99.90
10472;DHT22;5283;48.876;8.962;2022-09-27T14:37:33;9.60;99.90
10472;DHT22;5283;48.876;8.962;2022-09-27T14:40:04;9.70;99.90
10472;DHT22;5283;48.876;8.962;2022-09-27T14:42:35;9.80;99.90
10472;DHT22;5283;48.876;8.962;2022-09-27T14:45:11;9.80;99.90
10472;DHT22;5283;48.876;8.962;2022-09-27T14:47:45;9.70;99.90
10472;DHT22;5283;48.876;8.962;2022-09-27T14:50:26;9.50;99.90
10472;DHT22;5283;48.876;8.962;2022-09-27T14:52:57;9.40;99.90
10472;DHT22;5283;48.876;8.962;2022-09-27T14:55:27;9.50;99.90
10472;DHT22;5283;48.876;8.962;2022-09-27T14:57:57;9.70;99.90
10472;DHT22;5283;48.876;8.962;2022-09-27T15:00:27;9.80;99.90
10472;DHT22;5283;48.876;8.962;2022-09-27T15:02:59;9.90;99.90
10472;DHT22;5283;48.876;8.962;2022-09-27T15:05:29;9.90;99.90
10472;DHT22;5283;48.876;8.962;2022-09-27T15:08:00;10.00;99.90
10472;DHT22;5283;48.876;8.962;2022-09-27T15:10:29;9.90;99.90
10472;DHT22;5283;48.876;8.962;2022-09-27T15:13:00;10.00;99.90
10472;DHT22;5283;48.876;8.962;2022-09-27T15:15:32;10.20;99.90
10472;DHT22;5283;48.876;8.962;2022-09-27T15:18:01;10.40;99.90
10472;DHT22;5283;48.876;8.962;2022-09-27T15:20:31;10.40;99.90
10472;DHT22;5283;48.876;8.962;2022-09-27T15:23:02;10.20;99.90
10472;DHT22;5283;48.876;8.962;2022-09-27T15:25:32;10.20;99.90
10472;DHT22;5283;48.876;8.962;2022-09-27T15:28:05;10.10;99.90
10472;DHT22;5283;48.876;8.962;2022-09-27T15:30:35;10.50;99.90
10472;DHT22;5283;48.876;8.962;2022-09-27T15:33:02;11.20;99.90
10472;DHT22;5283;48.876;8.962;2022-09-27T15:35:32;11.10;99.90
10472;DHT22;5283;48.876;8.962;2022-09-27T15:43:31;10.10;99.90
10472;DHT22;5283;48.876;8.962;2022-09-27T15:46:03;9.90;99.90
10472;DHT22;5283;48.876;8.962;2022-09-27T15:48:31;9.70;99.90
10472;DHT22;5283;48.876;8.962;2022-09-27T15:50:59;9.60;99.90
10472;DHT22;5283;48.876;8.962;2022-09-27T15:53:46;9.60;99.90
10472;DHT22;5283;48.876;8.962;2022-09-27T15:56:14;9.60;99.90
10472;DHT22;5283;48.876;8.962;2022-09-27T15:58:41;9.80;99.90
10472;DHT22;5283;48.876;8.962;2022-09-27T16:01:16;10.00;99.90
10472;DHT22;5283;48.876;8.962;2022-09-27T16:03:43;9.90;99.90
10472;DHT22;5283;48.876;8.962;2022-09-27T16:06:10;9.80;99.90
10472;DHT22;5283;48.876;8.962;2022-09-27T16:08:39;9.60;99.90
10472;DHT22;5283;48.876;8.962;2022-09-27T16:11:05;9.60;99.90
10472;DHT22;5283;48.876;8.962;2022-09-27T16:13:32;9.50;99.90
10472;DHT22;5283;48.876;8.962;2022-09-27T16:16:00;9.40;99.90
10472;DHT22;5283;48.876;8.962;2022-09-27T16:18:27;9.40;99.90
10472;DHT22;5283;48.876;8.962;2022-09-27T16:20:57;9.30;99.90
10472;DHT22;5283;48.876;8.962;2022-09-27T16:23:23;9.10;99.90
10472;DHT22;5283;48.876;8.962;2022-09-27T16:25:52;9.10;99.90
10472;DHT22;5283;48.876;8.962;2022-09-27T16:28:18;9.20;99.90
10472;DHT22;5283;48.876;8.962;2022-09-27T16:30:45;9.20;99.90
10472;DHT22;5283;48.876;8.962;2022-09-27T16:33:13;9.20;99.90
10472;DHT22;5283;48.876;8.962;2022-09-27T16:35:40;9.20;99.90
10472;DHT22;5283;48.876;8.962;2022-09-27T16:38:07;9.10;99.90
10472;DHT22;5283;48.876;8.962;2022-09-27T16:40:34;9.00;99.90
10472;DHT22;5283;48.876;8.962;2022-09-27T16:43:01;9.00;99.90
10472;DHT22;5283;48.876;8.962;2022-09-27T16:45:30;9.00;99.90
10472;DHT22;5283;48.876;8.962;2022-09-27T16:47:59;9.00;99.90
10472;DHT22;5283;48.876;8.962;2022-09-27T16:50:26;8.90;99.90
10472;DHT22;5283;48.876;8.962;2022-09-27T16:53:12;8.80;99.90
10472;DHT22;5283;48.876;8.962;2022-09-27T16:55:39;8.80;99.90
10472;DHT22;5283;48.876;8.962;2022-09-27T16:58:05;8.90;99.90
10472;DHT22;5283;48.876;8.962;2022-09-27T17:00:33;8.80;99.90
10472;DHT22;5283;48.876;8.962;2022-09-27T17:03:00;8.80;99.90
10472;DHT22;5283;48.876;8.962;2022-09-27T17:05:27;8.80;99.90
10472;DHT22;5283;48.876;8.962;2022-09-27T17:07:54;8.80;99.90
10472;DHT22;5283;48.876;8.962;2022-09-27T17:10:21;8.90;99.90
10472;DHT22;5283;48.876;8.962;2022-09-27T17:12:48;8.90;99.90
10472;DHT22;5283;48.876;8.962;2022-09-27T17:15:15;8.90;99.90
10472;DHT22;5283;48.876;8.962;2022-09-27T17:17:42;8.80;99.90
10472;DHT22;5283;48.876;8.962;2022-09-27T17:20:10;8.80;99.90
10472;DHT22;5283;48.876;8.962;2022-09-27T17:22:37;8.80;99.90
10472;DHT22;5283;48.876;8.962;2022-09-27T17:25:04;8.80;99.90
10472;DHT22;5283;48.876;8.962;2022-09-27T17:27:30;8.70;99.90
10472;DHT22;5283;48.876;8.962;2022-09-27T17:29:57;8.70;99.90
10472;DHT22;5283;48.876;8.962;2022-09-27T17:32:24;8.60;99.90
10472;DHT22;5283;48.876;8.962;2022-09-27T17:34:51;8.60;99.90
10472;DHT22;5283;48.876;8.962;2022-09-27T17:37:18;8.60;99.90
10472;DHT22;5283;48.876;8.962;2022-09-27T17:39:44;8.50;99.90
10472;DHT22;5283;48.876;8.962;2022-09-27T17:42:11;8.40;99.90
10472;DHT22;5283;48.876;8.962;2022-09-27T17:44:38;8.40;99.90
10472;DHT22;5283;48.876;8.962;2022-09-27T17:47:05;8.30;99.90
10472;DHT22;5283;48.876;8.962;2022-09-27T17:49:50;8.20;99.90
10472;DHT22;5283;48.876;8.962;2022-09-27T17:52:35;8.10;99.90
10472;DHT22;5283;48.876;8.962;2022-09-27T17:55:03;8.10;99.90
10472;DHT22;5283;48.876;8.962;2022-09-27T17:57:30;8.10;99.90
10472;DHT22;5283;48.876;8.962;2022-09-27T17:59:57;8.00;99.90
10472;DHT22;5283;48.876;8.962;2022-09-27T18:02:24;8.10;99.90
10472;DHT22;5283;48.876;8.962;2022-09-27T18:04:51;8.00;99.90
10472;DHT22;5283;48.876;8.962;2022-09-27T18:07:17;7.90;99.90
10472;DHT22;5283;48.876;8.962;2022-09-27T18:09:45;7.90;99.90
10472;DHT22;5283;48.876;8.962;2022-09-27T18:12:11;7.90;99.90
10472;DHT22;5283;48.876;8.962;2022-09-27T18:14:39;7.80;99.90
10472;DHT22;5283;48.876;8.962;2022-09-27T18:17:05;7.90;99.90
10472;DHT22;5283;48.876;8.962;2022-09-27T18:19:32;8.00;99.90
10472;DHT22;5283;48.876;8.962;2022-09-27T18:21:59;7.90;99.90
10472;DHT22;5283;48.876;8.962;2022-09-27T18:24:26;7.80;99.90
10472;DHT22;5283;48.876;8.962;2022-09-27T18:26:53;7.70;99.90
10472;DHT22;5283;48.876;8.962;2022-09-27T18:29:21;7.50;99.90
10472;DHT22;5283;48.876;8.962;2022-09-27T18:31:48;7.40;99.90
10472;DHT22;5283;48.876;8.962;2022-09-27T18:34:16;7.40;99.90
10472;DHT22;5283;48.876;8.962;2022-09-27T18:36:43;7.30;99.90
10472;DHT22;5283;48.876;8.962;2022-09-27T18:39:14;7.20;99.90